Time;durP1;ratioP1;P1;durP2;ratioP2;P2;SDS_P1;SDS_P2;PMS_P1;PMS_P2;Temp;Humidity;BMP_temperature;BMP_pressure;BME280_temperature;BME280_humidity;BME280_pressure;Samples;Min_cycle;Max_cycle;Signal;HPM_P1;HPM_P2
2024/04/05 00:01:45;;;;;;;;;;;18.00;67.10;;;;;;5041064;28;1653;-70
2024/04/05 00:04:10;;;;;;;;;;;18.00;67.10;;;;;;5040600;28;1333;-70
2024/04/05 00:06:36;;;;;;;;;;;18.00;67.10;;;;;;5040894;28;1461;-70
2024/04/05 00:09:06;;;;;;;;;;;18.00;67.10;;;;;;5040493;28;1468;-70
2024/04/05 00:11:31;;;;;;;;;;;18.00;67.10;;;;;;5042525;28;1465;-70
2024/04/05 00:13:57;;;;;;;;;;;18.00;67.10;;;;;;5040743;28;1669;-69
2024/04/05 00:16:22;;;;;;;;;;;18.00;67.10;;;;;;5041270;28;1425;-69
2024/04/05 00:18:50;;;;;;;;;;;18.00;67.10;;;;;;5041127;28;1894;-69
2024/04/05 00:21:15;;;;;;;;;;;18.00;67.10;;;;;;5040009;28;1561;-70
2024/04/05 00:23:40;;;;;;;;;;;18.00;67.10;;;;;;5074844;28;1456;-70
2024/04/05 00:26:06;;;;;;;;;;;18.00;67.10;;;;;;5037636;28;1377;-70
2024/04/05 00:28:32;;;;;;;;;;;18.00;67.10;;;;;;5040177;28;1439;-69
2024/04/05 00:30:58;;;;;;;;;;;18.00;67.10;;;;;;5039860;28;1430;-69
2024/04/05 00:33:23;;;;;;;;;;;18.00;67.10;;;;;;5037840;28;1336;-69
2024/04/05 00:35:50;;;;;;;;;;;18.00;67.10;;;;;;5035745;28;1687;-68
2024/04/05 00:38:15;;;;;;;;;;;18.00;67.20;;;;;;5054015;28;2006;-69
2024/04/05 00:40:41;;;;;;;;;;;18.00;67.10;;;;;;5071489;28;1411;-69
2024/04/05 00:43:06;;;;;;;;;;;18.00;67.20;;;;;;5041023;28;1709;-69
2024/04/05 00:45:32;;;;;;;;;;;18.00;67.20;;;;;;5040038;28;1533;-68
2024/04/05 00:47:58;;;;;;;;;;;18.00;67.10;;;;;;5039950;28;979;-69
2024/04/05 00:50:23;;;;;;;;;;;18.00;67.20;;;;;;5070060;28;1596;-69
2024/04/05 00:52:49;;;;;;;;;;;18.00;67.20;;;;;;5047196;28;1500;-69
2024/04/05 00:55:14;;;;;;;;;;;18.00;67.20;;;;;;5040320;28;1403;-69
2024/04/05 00:57:40;;;;;;;;;;;18.00;67.20;;;;;;5039971;28;1352;-69
2024/04/05 01:00:05;;;;;;;;;;;18.00;67.20;;;;;;5040174;28;1957;-68
2024/04/05 01:02:31;;;;;;;;;;;18.00;67.20;;;;;;5057152;28;1559;-71
2024/04/05 01:04:56;;;;;;;;;;;18.00;67.20;;;;;;5041258;28;1451;-71
2024/04/05 01:07:22;;;;;;;;;;;18.00;67.20;;;;;;5040871;28;1426;-71
2024/04/05 01:09:47;;;;;;;;;;;18.00;67.20;;;;;;5054059;28;1311;-71
2024/04/05 01:12:13;;;;;;;;;;;18.00;68.00;;;;;;5047950;28;1368;-71
2024/04/05 01:14:38;;;;;;;;;;;18.00;67.20;;;;;;5039499;28;1315;-71
2024/04/05 01:17:03;;;;;;;;;;;18.00;67.20;;;;;;5040643;28;1359;-71
2024/04/05 01:19:29;;;;;;;;;;;18.00;67.20;;;;;;5036457;28;1964;-71
2024/04/05 01:21:55;;;;;;;;;;;18.00;67.30;;;;;;5039018;28;1769;-71
2024/04/05 01:24:20;;;;;;;;;;;18.00;67.20;;;;;;5070369;28;1623;-71
2024/04/05 01:26:45;;;;;;;;;;;18.00;67.20;;;;;;5037587;28;1455;-71
2024/04/05 01:29:11;;;;;;;;;;;18.00;67.20;;;;;;5039215;28;1377;-70
2024/04/05 01:31:36;;;;;;;;;;;18.00;67.20;;;;;;5038883;28;1185;-71
2024/04/05 01:34:02;;;;;;;;;;;18.00;67.30;;;;;;5036767;28;1450;-70
2024/04/05 01:36:27;;;;;;;;;;;18.00;67.30;;;;;;5039475;28;1617;-70
2024/04/05 01:38:53;;;;;;;;;;;18.00;67.30;;;;;;5043688;28;2440;-73
2024/04/05 01:41:19;;;;;;;;;;;18.00;67.30;;;;;;5042460;28;1378;-73
2024/04/05 01:43:44;;;;;;;;;;;18.00;67.30;;;;;;5073802;28;1522;-71
2024/04/05 01:46:10;;;;;;;;;;;18.00;67.30;;;;;;5038623;28;1502;-71
2024/04/05 01:48:36;;;;;;;;;;;18.00;67.30;;;;;;5053057;28;1650;-71
2024/04/05 01:51:01;;;;;;;;;;;18.00;67.30;;;;;;5038448;28;1335;-71
2024/04/05 01:53:27;;;;;;;;;;;18.00;67.30;;;;;;5040010;28;1467;-71
2024/04/05 01:55:52;;;;;;;;;;;18.00;67.30;;;;;;5039420;28;1398;-71
2024/04/05 01:58:17;;;;;;;;;;;18.00;67.30;;;;;;5071308;28;1977;-71
2024/04/05 02:00:43;;;;;;;;;;;18.00;67.30;;;;;;5040486;28;1443;-69
2024/04/05 02:03:08;;;;;;;;;;;18.00;67.30;;;;;;5039244;28;1598;-70
2024/04/05 02:05:34;;;;;;;;;;;18.00;67.30;;;;;;5038288;28;1436;-71
2024/04/05 02:07:59;;;;;;;;;;;18.00;67.40;;;;;;5040279;28;1333;-71
2024/04/05 02:10:25;;;;;;;;;;;18.00;67.30;;;;;;5041898;28;1364;-71
2024/04/05 02:12:50;;;;;;;;;;;18.00;67.30;;;;;;5038985;28;1141;-71
2024/04/05 02:15:16;;;;;;;;;;;18.00;67.30;;;;;;5038150;28;1426;-71
2024/04/05 02:17:41;;;;;;;;;;;17.90;67.30;;;;;;5039277;28;1647;-71
2024/04/05 02:20:07;;;;;;;;;;;18.00;67.30;;;;;;5038145;28;1915;-68
2024/04/05 02:22:33;;;;;;;;;;;17.90;67.30;;;;;;5040978;28;1387;-69
2024/04/05 02:24:59;;;;;;;;;;;18.00;67.30;;;;;;5041891;28;1691;-68
2024/04/05 02:27:25;;;;;;;;;;;18.00;67.30;;;;;;5042134;28;1522;-68
2024/04/05 02:29:50;;;;;;;;;;;17.90;67.30;;;;;;5040262;28;1229;-71
2024/04/05 02:32:16;;;;;;;;;;;17.90;67.30;;;;;;5038875;28;1328;-71
2024/04/05 02:34:41;;;;;;;;;;;17.90;67.40;;;;;;5036702;28;1565;-70
2024/04/05 02:37:08;;;;;;;;;;;17.90;67.30;;;;;;5071013;28;1292;-71
2024/04/05 02:39:33;;;;;;;;;;;18.00;67.40;;;;;;5037755;28;1902;-71
2024/04/05 02:41:58;;;;;;;;;;;17.90;67.30;;;;;;5040252;28;1046;-72
2024/04/05 02:44:25;;;;;;;;;;;18.00;67.40;;;;;;5038243;28;1153;-70
2024/04/05 02:46:51;;;;;;;;;;;17.90;67.30;;;;;;5039840;28;1550;-71
2024/04/05 02:49:17;;;;;;;;;;;17.90;67.30;;;;;;5045391;28;1435;-70
2024/04/05 02:51:42;;;;;;;;;;;17.90;67.40;;;;;;5040722;28;1490;-71
2024/04/05 02:54:08;;;;;;;;;;;17.90;67.30;;;;;;5036536;28;1347;-71
2024/04/05 02:56:33;;;;;;;;;;;18.00;67.40;;;;;;5069243;28;1542;-70
2024/04/05 02:58:59;;;;;;;;;;;17.90;67.30;;;;;;5040572;28;2262;-70
2024/04/05 03:01:24;;;;;;;;;;;17.90;67.30;;;;;;5036187;28;1482;-71
2024/04/05 03:03:50;;;;;;;;;;;18.00;67.40;;;;;;5039508;28;1258;-70
2024/04/05 03:06:16;;;;;;;;;;;17.90;67.30;;;;;;5037378;28;1501;-71
2024/04/05 03:08:41;;;;;;;;;;;17.90;67.30;;;;;;5037805;28;1216;-71
2024/04/05 03:11:08;;;;;;;;;;;17.90;67.40;;;;;;5038472;28;1186;-71
2024/04/05 03:13:34;;;;;;;;;;;17.90;67.30;;;;;;5038700;28;1448;-71
2024/04/05 03:16:01;;;;;;;;;;;17.90;67.30;;;;;;5041097;28;1552;-71
2024/04/05 03:18:26;;;;;;;;;;;18.00;67.40;;;;;;5042602;28;2007;-71
2024/04/05 03:20:52;;;;;;;;;;;17.90;68.10;;;;;;5042264;28;1830;-71
2024/04/05 03:23:17;;;;;;;;;;;18.00;67.40;;;;;;5041275;28;1459;-71
2024/04/05 03:25:43;;;;;;;;;;;17.90;67.30;;;;;;5042642;28;1647;-71
2024/04/05 03:28:08;;;;;;;;;;;17.90;67.30;;;;;;5043718;28;1203;-71
2024/04/05 03:30:35;;;;;;;;;;;17.90;67.30;;;;;;5043013;28;1513;-71
2024/04/05 03:33:00;;;;;;;;;;;17.90;67.30;;;;;;5062290;28;902;-71
2024/04/05 03:35:26;;;;;;;;;;;17.90;67.30;;;;;;5039528;28;1461;-71
2024/04/05 03:37:52;;;;;;;;;;;18.00;67.40;;;;;;5042594;28;1431;-71
2024/04/05 03:40:18;;;;;;;;;;;18.00;67.40;;;;;;5042334;28;1980;-71
2024/04/05 03:42:43;;;;;;;;;;;18.00;67.40;;;;;;5041964;28;1094;-71
2024/04/05 03:45:09;;;;;;;;;;;17.90;67.30;;;;;;5040661;28;1441;-71
2024/04/05 03:47:34;;;;;;;;;;;17.90;67.40;;;;;;5041157;28;1770;-71
2024/04/05 03:50:00;;;;;;;;;;;18.00;67.40;;;;;;5043991;28;1183;-71
2024/04/05 03:52:25;;;;;;;;;;;17.90;67.30;;;;;;5040666;28;990;-71
2024/04/05 03:54:51;;;;;;;;;;;17.90;67.30;;;;;;5044289;28;1370;-71
2024/04/05 03:57:16;;;;;;;;;;;18.00;67.40;;;;;;5044045;28;1589;-71
2024/04/05 03:59:41;;;;;;;;;;;17.90;67.30;;;;;;5038904;28;2001;-71
2024/04/05 04:02:08;;;;;;;;;;;17.90;67.30;;;;;;5039955;28;1631;-71
2024/04/05 04:04:34;;;;;;;;;;;17.90;67.40;;;;;;5040619;28;1075;-71
2024/04/05 04:07:01;;;;;;;;;;;18.00;67.40;;;;;;5042815;28;1363;-71
2024/04/05 04:09:26;;;;;;;;;;;17.90;67.40;;;;;;5040493;28;1465;-70
2024/04/05 04:11:52;;;;;;;;;;;17.90;67.30;;;;;;5040911;28;1365;-71
2024/04/05 04:14:18;;;;;;;;;;;18.00;67.40;;;;;;5039142;28;1533;-71
2024/04/05 04:16:43;;;;;;;;;;;17.90;67.40;;;;;;5041086;28;1400;-71
2024/04/05 04:19:11;;;;;;;;;;;18.00;67.30;;;;;;5037142;28;1922;-71
2024/04/05 04:21:36;;;;;;;;;;;18.00;67.20;;;;;;5069351;28;1412;-71
2024/04/05 04:24:02;;;;;;;;;;;18.00;67.10;;;;;;5041280;28;1455;-71
2024/04/05 04:26:28;;;;;;;;;;;18.10;67.10;;;;;;5071292;28;1478;-71
2024/04/05 04:28:53;;;;;;;;;;;18.10;67.00;;;;;;5042850;28;1649;-70
2024/04/05 04:31:22;;;;;;;;;;;18.10;66.90;;;;;;5040096;28;1049;-70
2024/04/05 04:33:48;;;;;;;;;;;18.10;66.80;;;;;;5043033;28;1328;-71
2024/04/05 04:36:13;;;;;;;;;;;18.20;66.80;;;;;;5040862;28;1588;-71
2024/04/05 04:38:39;;;;;;;;;;;18.20;66.70;;;;;;5038797;28;1961;-71
2024/04/05 04:41:04;;;;;;;;;;;18.20;66.50;;;;;;5039005;28;1033;-71
2024/04/05 04:43:30;;;;;;;;;;;18.20;66.50;;;;;;5040609;28;1542;-71
2024/04/05 04:45:55;;;;;;;;;;;18.20;66.40;;;;;;5041962;28;1743;-71
2024/04/05 04:48:21;;;;;;;;;;;18.20;66.40;;;;;;5041724;28;1421;-70
2024/04/05 04:50:46;;;;;;;;;;;18.20;66.30;;;;;;5070748;28;1554;-70
2024/04/05 04:53:12;;;;;;;;;;;18.30;66.30;;;;;;5039842;28;1695;-70
2024/04/05 04:55:37;;;;;;;;;;;18.30;66.30;;;;;;5042672;28;1500;-70
2024/04/05 04:58:03;;;;;;;;;;;18.30;66.20;;;;;;5040140;28;1914;-71
2024/04/05 05:00:28;;;;;;;;;;;18.30;66.10;;;;;;5040934;28;1223;-70
2024/04/05 05:02:54;;;;;;;;;;;18.30;66.10;;;;;;5042324;28;1551;-70
2024/04/05 05:05:19;;;;;;;;;;;18.30;66.10;;;;;;5037708;28;1398;-70
2024/04/05 05:07:45;;;;;;;;;;;18.30;66.00;;;;;;5039760;28;1336;-71
2024/04/05 05:10:10;;;;;;;;;;;18.40;66.00;;;;;;5038647;28;1199;-71
2024/04/05 05:12:36;;;;;;;;;;;18.40;66.00;;;;;;5038655;28;1163;-71
2024/04/05 05:15:01;;;;;;;;;;;18.30;65.90;;;;;;5039293;28;874;-71
2024/04/05 05:17:27;;;;;;;;;;;18.30;65.80;;;;;;5038689;28;1241;-71
2024/04/05 05:19:52;;;;;;;;;;;18.40;65.90;;;;;;5041182;28;1910;-71
2024/04/05 05:22:18;;;;;;;;;;;18.40;65.80;;;;;;5038314;28;1259;-71
2024/04/05 05:24:44;;;;;;;;;;;18.40;65.80;;;;;;5041071;28;1027;-70
2024/04/05 05:27:09;;;;;;;;;;;18.40;65.80;;;;;;5040687;28;1410;-71
2024/04/05 05:29:35;;;;;;;;;;;18.40;65.80;;;;;;5043243;28;1418;-71
2024/04/05 05:32:00;;;;;;;;;;;18.40;65.70;;;;;;5039290;28;1569;-71
2024/04/05 05:34:26;;;;;;;;;;;18.40;65.70;;;;;;5037389;28;820;-71
2024/04/05 05:36:51;;;;;;;;;;;18.40;65.70;;;;;;5047612;28;1291;-71
2024/04/05 05:39:19;;;;;;;;;;;18.40;65.70;;;;;;5040349;28;1909;-71
2024/04/05 05:41:44;;;;;;;;;;;18.40;65.60;;;;;;5041155;28;1509;-71
2024/04/05 05:44:10;;;;;;;;;;;18.50;65.70;;;;;;5038807;28;905;-71
2024/04/05 05:46:35;;;;;;;;;;;18.50;65.60;;;;;;5039394;28;1484;-70
2024/04/05 05:49:01;;;;;;;;;;;18.40;65.60;;;;;;5042848;28;1585;-71
2024/04/05 05:51:26;;;;;;;;;;;18.50;65.60;;;;;;5039636;28;1237;-70
2024/04/05 05:53:52;;;;;;;;;;;18.50;65.70;;;;;;5038343;28;1306;-71
2024/04/05 05:56:17;;;;;;;;;;;18.50;65.60;;;;;;5037181;28;1399;-71
2024/04/05 05:58:43;;;;;;;;;;;18.40;65.60;;;;;;5041067;28;1961;-70
2024/04/05 06:01:08;;;;;;;;;;;18.50;65.60;;;;;;5041098;28;1452;-71
2024/04/05 06:03:34;;;;;;;;;;;18.50;65.70;;;;;;5039604;28;1749;-70
2024/04/05 06:06:02;;;;;;;;;;;18.40;65.60;;;;;;5038022;28;1501;-71
2024/04/05 06:08:28;;;;;;;;;;;18.40;65.60;;;;;;5036271;28;1544;-70
2024/04/05 06:10:54;;;;;;;;;;;18.50;65.70;;;;;;5034843;28;1610;-70
2024/04/05 06:13:20;;;;;;;;;;;18.40;65.70;;;;;;5035944;28;1505;-71
2024/04/05 06:15:50;;;;;;;;;;;18.40;65.70;;;;;;5036072;28;1535;-70
2024/04/05 06:18:16;;;;;;;;;;;18.40;65.70;;;;;;5039020;28;1963;-70
2024/04/05 06:20:41;;;;;;;;;;;18.40;65.70;;;;;;5042498;28;1348;-70
2024/04/05 06:23:06;;;;;;;;;;;18.40;65.80;;;;;;5069135;28;1915;-70
2024/04/05 06:25:32;;;;;;;;;;;18.40;65.80;;;;;;5070565;28;1352;-70
2024/04/05 06:27:57;;;;;;;;;;;18.40;65.80;;;;;;5040868;28;1918;-72
2024/04/05 06:30:23;;;;;;;;;;;18.40;65.80;;;;;;5038305;28;1936;-73
2024/04/05 06:32:48;;;;;;;;;;;18.40;65.90;;;;;;5039650;28;1375;-72
2024/04/05 06:35:14;;;;;;;;;;;18.40;65.90;;;;;;5051429;28;1348;-71
2024/04/05 06:37:40;;;;;;;;;;;18.40;65.90;;;;;;5038488;28;1343;-71
2024/04/05 06:40:08;;;;;;;;;;;18.40;66.00;;;;;;5038679;28;1896;-71
2024/04/05 06:42:34;;;;;;;;;;;18.40;66.30;;;;;;5046039;28;1543;-71
2024/04/05 06:44:59;;;;;;;;;;;18.40;66.00;;;;;;5037750;28;1382;-72
2024/04/05 06:47:24;;;;;;;;;;;18.40;66.00;;;;;;5036658;28;1493;-71
2024/04/05 06:49:50;;;;;;;;;;;18.30;66.00;;;;;;5037939;28;1598;-70
2024/04/05 06:52:15;;;;;;;;;;;18.40;66.10;;;;;;5040634;28;1518;-72
2024/04/05 06:54:46;;;;;;;;;;;18.40;66.10;;;;;;5041941;28;1449;-71
2024/04/05 06:57:11;;;;;;;;;;;18.30;66.10;;;;;;5072354;28;1378;-72
2024/04/05 06:59:36;;;;;;;;;;;18.30;66.10;;;;;;5075260;28;1902;-72
2024/04/05 07:02:03;;;;;;;;;;;18.30;66.10;;;;;;5073502;28;1649;-71
2024/04/05 07:04:29;;;;;;;;;;;18.30;66.10;;;;;;5043151;28;1422;-72
2024/04/05 07:06:54;;;;;;;;;;;18.30;66.20;;;;;;5041274;28;1681;-71
2024/04/05 07:09:20;;;;;;;;;;;18.30;66.20;;;;;;5043526;28;1661;-72
2024/04/05 07:11:46;;;;;;;;;;;18.30;66.20;;;;;;5075240;28;1647;-71
2024/04/05 07:14:12;;;;;;;;;;;18.30;66.20;;;;;;5043359;28;1156;-72
2024/04/05 07:16:37;;;;;;;;;;;18.30;66.30;;;;;;5042075;28;1783;-72
2024/04/05 07:19:02;;;;;;;;;;;18.30;66.30;;;;;;5075531;28;1898;-71
2024/04/05 07:21:28;;;;;;;;;;;18.30;66.30;;;;;;5043505;28;1524;-72
2024/04/05 07:23:55;;;;;;;;;;;18.30;66.30;;;;;;5042432;28;1549;-72
2024/04/05 07:26:20;;;;;;;;;;;18.30;66.30;;;;;;5043446;28;1443;-72
2024/04/05 07:28:46;;;;;;;;;;;18.30;66.30;;;;;;5043327;28;1441;-71
2024/04/05 07:31:13;;;;;;;;;;;18.30;66.30;;;;;;5058515;28;1348;-71
2024/04/05 07:33:39;;;;;;;;;;;18.20;66.30;;;;;;5041774;28;1109;-70
2024/04/05 07:36:05;;;;;;;;;;;18.30;66.40;;;;;;5042329;28;1544;-72
2024/04/05 07:38:30;;;;;;;;;;;18.20;66.30;;;;;;5042218;28;1955;-71
2024/04/05 07:41:05;;;;;;;;;;;18.20;66.30;;;;;;5032412;28;1657;-72
2024/04/05 07:43:31;;;;;;;;;;;18.20;66.30;;;;;;5040005;28;1465;-71
2024/04/05 07:45:56;;;;;;;;;;;18.20;66.40;;;;;;5073786;28;1468;-71
2024/04/05 07:48:22;;;;;;;;;;;18.20;66.40;;;;;;5040500;28;1507;-71
2024/04/05 07:50:47;;;;;;;;;;;18.20;66.40;;;;;;5041787;28;1523;-72
2024/04/05 07:53:13;;;;;;;;;;;18.20;66.40;;;;;;5070236;28;1644;-71
2024/04/05 07:55:39;;;;;;;;;;;18.20;66.50;;;;;;5069806;28;1669;-72
2024/04/05 07:58:04;;;;;;;;;;;18.20;66.50;;;;;;5039100;28;1335;-72
2024/04/05 08:00:30;;;;;;;;;;;18.20;66.50;;;;;;5072834;28;1926;-71
2024/04/05 08:02:55;;;;;;;;;;;18.20;66.50;;;;;;5041081;28;1287;-72
2024/04/05 08:05:21;;;;;;;;;;;18.20;66.50;;;;;;5037713;28;1248;-71
2024/04/05 08:07:46;;;;;;;;;;;18.20;66.50;;;;;;5047589;28;1319;-71
2024/04/05 08:10:13;;;;;;;;;;;18.20;66.50;;;;;;5068340;28;1235;-71
2024/04/05 08:12:39;;;;;;;;;;;18.20;66.50;;;;;;5041583;28;1061;-71
2024/04/05 08:15:04;;;;;;;;;;;18.20;66.50;;;;;;5072893;28;1125;-70
2024/04/05 08:17:30;;;;;;;;;;;18.20;66.60;;;;;;5041706;28;1390;-71
2024/04/05 08:19:55;;;;;;;;;;;18.20;66.60;;;;;;5024334;28;1975;-71
2024/04/05 08:22:21;;;;;;;;;;;18.20;66.70;;;;;;5055766;28;1421;-70
2024/04/05 08:24:47;;;;;;;;;;;18.20;66.70;;;;;;5046934;28;1480;-71
2024/04/05 08:27:13;;;;;;;;;;;18.20;66.70;;;;;;5041851;28;1379;-71
2024/04/05 08:29:38;;;;;;;;;;;18.20;66.70;;;;;;5040137;28;1595;-71
2024/04/05 08:32:05;;;;;;;;;;;18.20;66.70;;;;;;5040953;28;1607;-71
2024/04/05 08:34:30;;;;;;;;;;;18.20;66.70;;;;;;5047855;28;1667;-72
2024/04/05 08:36:57;;;;;;;;;;;18.20;66.70;;;;;;5071159;28;1464;-71
2024/04/05 08:39:23;;;;;;;;;;;18.20;66.80;;;;;;5038119;28;1965;-71
2024/04/05 08:41:48;;;;;;;;;;;18.20;66.80;;;;;;5040111;28;1505;-72
2024/04/05 08:44:14;;;;;;;;;;;18.20;66.80;;;;;;5040322;28;1417;-71
2024/04/05 08:46:40;;;;;;;;;;;18.10;66.70;;;;;;5039293;28;1513;-71
2024/04/05 08:49:06;;;;;;;;;;;18.10;66.70;;;;;;5041866;28;1570;-72
2024/04/05 08:51:33;;;;;;;;;;;18.10;66.80;;;;;;5047214;28;1667;-71
2024/04/05 08:53:58;;;;;;;;;;;18.10;66.80;;;;;;5041067;28;1853;-71
2024/04/05 08:56:26;;;;;;;;;;;18.10;66.80;;;;;;5038076;28;1433;-71
2024/04/05 08:58:52;;;;;;;;;;;18.20;66.80;;;;;;5070188;28;1910;-71
2024/04/05 09:01:19;;;;;;;;;;;18.10;66.80;;;;;;5035973;28;1253;-70
2024/04/05 09:03:46;;;;;;;;;;;18.10;66.90;;;;;;5039828;28;1280;-71
2024/04/05 09:06:11;;;;;;;;;;;18.10;66.80;;;;;;5039853;28;1367;-71
2024/04/05 09:08:44;;;;;;;;;;;18.10;66.80;;;;;;5047259;28;1376;-71
2024/04/05 09:11:10;;;;;;;;;;;18.10;66.80;;;;;;5039819;28;1321;-71
2024/04/05 09:13:35;;;;;;;;;;;18.10;66.80;;;;;;5038890;28;1197;-71
2024/04/05 09:16:02;;;;;;;;;;;18.10;66.90;;;;;;5040514;28;1285;-71
2024/04/05 09:18:27;;;;;;;;;;;18.10;66.90;;;;;;5069180;28;1910;-71
2024/04/05 09:20:53;;;;;;;;;;;18.10;66.90;;;;;;5043290;28;1449;-71
2024/04/05 09:23:18;;;;;;;;;;;18.10;66.90;;;;;;5041856;28;1443;-71
2024/04/05 09:25:44;;;;;;;;;;;18.10;66.90;;;;;;5039600;28;1479;-71
2024/04/05 09:28:14;;;;;;;;;;;18.10;66.90;;;;;;5039794;28;2019;-71
2024/04/05 09:30:40;;;;;;;;;;;18.10;66.90;;;;;;5037075;28;1958;-72
2024/04/05 09:33:05;;;;;;;;;;;18.10;66.90;;;;;;5039793;28;1299;-72
2024/04/05 09:35:31;;;;;;;;;;;18.10;66.90;;;;;;5038261;28;1359;-71
2024/04/05 09:37:58;;;;;;;;;;;18.10;67.30;;;;;;5055648;28;1581;-71
2024/04/05 09:40:23;;;;;;;;;;;18.10;67.70;;;;;;5039130;28;1969;-71
2024/04/05 09:42:52;;;;;;;;;;;18.10;66.90;;;;;;5039666;28;1478;-70
2024/04/05 09:45:19;;;;;;;;;;;18.10;68.00;;;;;;5048139;28;958;-71
2024/04/05 09:47:45;;;;;;;;;;;18.10;66.90;;;;;;5057922;28;1507;-70
2024/04/05 09:50:10;;;;;;;;;;;18.10;66.90;;;;;;5071604;28;1318;-71
2024/04/05 09:52:40;;;;;;;;;;;18.10;66.90;;;;;;5036025;28;1607;-70
2024/04/05 09:55:08;;;;;;;;;;;18.10;67.40;;;;;;5039021;28;1621;-71
2024/04/05 09:57:34;;;;;;;;;;;18.10;67.50;;;;;;5036557;28;1259;-71
2024/04/05 09:59:59;;;;;;;;;;;18.10;67.60;;;;;;5039233;28;2229;-71
2024/04/05 10:02:25;;;;;;;;;;;18.10;67.10;;;;;;5038421;28;1210;-70
2024/04/05 10:04:50;;;;;;;;;;;18.10;67.20;;;;;;5051576;28;1196;-71
2024/04/05 10:07:16;;;;;;;;;;;18.10;67.00;;;;;;5070195;28;1362;-71
2024/04/05 10:09:42;;;;;;;;;;;18.10;67.50;;;;;;5046545;28;1605;-70
2024/04/05 10:12:12;;;;;;;;;;;18.10;67.40;;;;;;5071773;28;1350;-71
2024/04/05 10:14:37;;;;;;;;;;;18.10;67.30;;;;;;5038666;28;1451;-70
2024/04/05 10:17:12;;;;;;;;;;;18.10;67.20;;;;;;5038573;28;1350;-71
2024/04/05 10:19:38;;;;;;;;;;;18.10;66.90;;;;;;5038876;28;1961;-71
2024/04/05 10:22:05;;;;;;;;;;;18.10;66.00;;;;;;5071445;28;1118;-70
2024/04/05 10:24:31;;;;;;;;;;;18.10;66.00;;;;;;5036450;28;1200;-71
2024/04/05 10:26:56;;;;;;;;;;;18.10;66.70;;;;;;5042080;28;1828;-70
2024/04/05 10:29:22;;;;;;;;;;;18.10;66.20;;;;;;5038493;28;1404;-70
2024/04/05 10:31:48;;;;;;;;;;;18.10;66.60;;;;;;5040761;28;1354;-70
2024/04/05 10:34:22;;;;;;;;;;;18.10;67.40;;;;;;5038713;28;1382;-70
2024/04/05 10:36:47;;;;;;;;;;;18.10;67.00;;;;;;5037928;28;1351;-71
2024/04/05 10:39:18;;;;;;;;;;;18.10;66.70;;;;;;5038804;28;1906;-70
2024/04/05 10:41:45;;;;;;;;;;;18.10;66.10;;;;;;5038383;28;1648;-70
2024/04/05 10:44:11;;;;;;;;;;;18.20;66.30;;;;;;5042134;28;1050;-70
2024/04/05 10:46:39;;;;;;;;;;;18.20;66.90;;;;;;5052643;28;1469;-71
2024/04/05 10:49:05;;;;;;;;;;;18.20;66.50;;;;;;5042659;28;1097;-70
2024/04/05 10:51:30;;;;;;;;;;;18.20;66.30;;;;;;5035158;28;1529;-70
2024/04/05 10:54:06;;;;;;;;;;;18.20;66.50;;;;;;5070781;28;1342;-71
2024/04/05 10:56:32;;;;;;;;;;;18.20;66.50;;;;;;5045601;28;1410;-70
2024/04/05 10:58:58;;;;;;;;;;;18.20;65.90;;;;;;5038135;28;1914;-70
2024/04/05 11:01:23;;;;;;;;;;;18.20;65.70;;;;;;5046870;28;943;-70
2024/04/05 11:03:48;;;;;;;;;;;18.30;65.60;;;;;;5039350;28;936;-71
2024/04/05 11:06:14;;;;;;;;;;;18.30;65.70;;;;;;5034705;28;1363;-70
2024/04/05 11:08:48;;;;;;;;;;;18.30;65.90;;;;;;5040560;28;964;-70
2024/04/05 11:11:13;;;;;;;;;;;18.30;66.10;;;;;;5038769;28;1017;-70
2024/04/05 11:13:39;;;;;;;;;;;18.30;66.70;;;;;;5037624;28;1324;-70
2024/04/05 11:16:04;;;;;;;;;;;18.30;66.60;;;;;;5039841;28;1452;-70
2024/04/05 11:18:37;;;;;;;;;;;18.40;66.60;;;;;;5040299;28;1910;-71
2024/04/05 11:21:03;;;;;;;;;;;18.40;66.30;;;;;;5038354;28;1245;-71
2024/04/05 11:23:28;;;;;;;;;;;18.40;65.80;;;;;;5046411;28;1474;-71
2024/04/05 11:25:54;;;;;;;;;;;18.30;65.50;;;;;;5037988;28;1406;-70
2024/04/05 11:28:23;;;;;;;;;;;18.40;65.10;;;;;;5067264;28;1333;-70
2024/04/05 11:30:52;;;;;;;;;;;18.40;65.00;;;;;;5037979;28;1444;-70
2024/04/05 11:33:17;;;;;;;;;;;18.40;65.00;;;;;;5045328;28;1402;-71
2024/04/05 11:35:43;;;;;;;;;;;18.50;65.10;;;;;;5038035;28;1425;-71
2024/04/05 11:38:09;;;;;;;;;;;18.50;65.20;;;;;;5038417;28;1476;-70
2024/04/05 11:40:34;;;;;;;;;;;18.50;66.10;;;;;;5074015;28;1894;-71
2024/04/05 11:43:01;;;;;;;;;;;18.50;64.80;;;;;;5056539;28;1733;-70
2024/04/05 11:45:26;;;;;;;;;;;18.50;63.90;;;;;;5048733;28;1668;-70
2024/04/05 11:47:52;;;;;;;;;;;18.50;63.30;;;;;;5040729;28;1388;-71
2024/04/05 11:50:17;;;;;;;;;;;18.50;63.70;;;;;;5048582;28;1472;-70
2024/04/05 11:52:43;;;;;;;;;;;18.50;64.10;;;;;;5039352;28;883;-70
2024/04/05 11:55:08;;;;;;;;;;;18.40;64.40;;;;;;5041254;28;1021;-71
2024/04/05 11:57:34;;;;;;;;;;;18.40;65.20;;;;;;5070894;28;1491;-71
2024/04/05 12:00:00;;;;;;;;;;;18.40;65.20;;;;;;5039902;28;1969;-71
2024/04/05 12:02:26;;;;;;;;;;;18.40;64.90;;;;;;5042279;28;1263;-71
2024/04/05 12:04:51;;;;;;;;;;;18.40;64.90;;;;;;5075092;28;1552;-70
2024/04/05 12:07:17;;;;;;;;;;;18.40;64.70;;;;;;5041226;28;1474;-71
2024/04/05 12:09:42;;;;;;;;;;;18.40;65.00;;;;;;5039585;28;1232;-72
2024/04/05 12:12:08;;;;;;;;;;;18.50;65.40;;;;;;5048423;28;1236;-72
2024/04/05 12:14:34;;;;;;;;;;;18.50;65.40;;;;;;5043897;28;1314;-72
2024/04/05 12:17:00;;;;;;;;;;;18.50;65.10;;;;;;5073943;28;1339;-71
2024/04/05 12:19:25;;;;;;;;;;;18.50;65.40;;;;;;5072187;28;1901;-71
2024/04/05 12:21:51;;;;;;;;;;;18.50;65.50;;;;;;5038900;28;1513;-69
2024/04/05 12:24:16;;;;;;;;;;;18.50;65.60;;;;;;5073746;28;1609;-70
2024/04/05 12:26:42;;;;;;;;;;;18.50;65.50;;;;;;5041492;28;1518;-71
2024/04/05 12:29:07;;;;;;;;;;;18.50;65.40;;;;;;5042921;28;1396;-71
2024/04/05 12:31:33;;;;;;;;;;;18.50;65.30;;;;;;5050116;28;1366;-70
2024/04/05 12:33:58;;;;;;;;;;;18.50;65.00;;;;;;5040580;28;1432;-71
2024/04/05 12:36:24;;;;;;;;;;;18.50;64.90;;;;;;5042515;28;1639;-71
2024/04/05 12:38:56;;;;;;;;;;;18.50;65.10;;;;;;5042625;28;1910;-71
2024/04/05 12:41:24;;;;;;;;;;;18.60;65.10;;;;;;5039296;28;1212;-73
2024/04/05 12:43:50;;;;;;;;;;;18.60;65.10;;;;;;5041147;28;1510;-71
2024/04/05 12:46:16;;;;;;;;;;;18.60;65.30;;;;;;5042996;28;1493;-71
2024/04/05 12:48:41;;;;;;;;;;;18.60;65.30;;;;;;5041616;28;1495;-72
2024/04/05 12:51:07;;;;;;;;;;;18.50;65.00;;;;;;5043332;28;1464;-71
2024/04/05 12:53:32;;;;;;;;;;;18.60;64.70;;;;;;5036893;28;1640;-71
2024/04/05 12:55:58;;;;;;;;;;;18.60;64.50;;;;;;5038778;28;1428;-72
2024/04/05 12:58:25;;;;;;;;;;;18.60;65.40;;;;;;5040163;28;1902;-71
2024/04/05 13:00:51;;;;;;;;;;;18.50;64.40;;;;;;5038971;28;1685;-71
2024/04/05 13:03:16;;;;;;;;;;;18.50;64.00;;;;;;5041361;28;1254;-71
2024/04/05 13:05:42;;;;;;;;;;;18.50;63.30;;;;;;5046033;28;1479;-72
2024/04/05 13:08:07;;;;;;;;;;;18.50;63.90;;;;;;5043420;28;1402;-72
2024/04/05 13:10:33;;;;;;;;;;;18.50;63.70;;;;;;5045101;28;1408;-72
2024/04/05 13:12:58;;;;;;;;;;;18.50;63.80;;;;;;5039032;28;1390;-72
2024/04/05 13:15:24;;;;;;;;;;;18.50;63.80;;;;;;5072163;28;1274;-72
2024/04/05 13:17:49;;;;;;;;;;;18.50;64.10;;;;;;5044520;28;1348;-72
2024/04/05 13:20:15;;;;;;;;;;;18.50;64.30;;;;;;5041725;28;1906;-72
2024/04/05 13:22:41;;;;;;;;;;;18.50;64.40;;;;;;5057666;28;1438;-71
2024/04/05 13:25:06;;;;;;;;;;;18.50;64.60;;;;;;5042560;28;1705;-71
2024/04/05 13:27:32;;;;;;;;;;;18.50;64.70;;;;;;5043462;28;1272;-72
2024/04/05 13:29:57;;;;;;;;;;;18.50;64.90;;;;;;5041857;28;1424;-72
2024/04/05 13:32:23;;;;;;;;;;;18.50;64.90;;;;;;5044026;28;958;-71
2024/04/05 13:34:51;;;;;;;;;;;18.50;65.00;;;;;;5039917;28;1545;-72
2024/04/05 13:37:16;;;;;;;;;;;18.50;65.10;;;;;;5046653;28;1377;-72
2024/04/05 13:39:41;;;;;;;;;;;18.40;65.20;;;;;;5038465;28;1975;-72
2024/04/05 13:42:07;;;;;;;;;;;18.40;66.00;;;;;;5036914;28;1237;-72
2024/04/05 13:44:32;;;;;;;;;;;18.40;66.30;;;;;;5039164;28;1349;-73
2024/04/05 13:46:58;;;;;;;;;;;18.40;66.50;;;;;;5041001;28;1538;-72
2024/04/05 13:49:23;;;;;;;;;;;18.40;66.80;;;;;;5039932;28;1459;-72
2024/04/05 13:51:49;;;;;;;;;;;18.40;67.00;;;;;;5040233;28;1519;-72
2024/04/05 13:54:15;;;;;;;;;;;18.40;67.10;;;;;;5041496;28;1281;-72
2024/04/05 13:56:41;;;;;;;;;;;18.40;67.10;;;;;;5040008;28;1426;-72
2024/04/05 13:59:07;;;;;;;;;;;18.40;67.00;;;;;;5039608;28;1910;-72
2024/04/05 14:01:32;;;;;;;;;;;18.40;66.90;;;;;;5042913;28;1318;-71
2024/04/05 14:03:58;;;;;;;;;;;18.40;67.10;;;;;;5041599;28;1536;-70
2024/04/05 14:06:23;;;;;;;;;;;18.40;67.00;;;;;;5043027;28;1572;-72
2024/04/05 14:08:49;;;;;;;;;;;18.40;66.80;;;;;;5040826;28;1445;-70
2024/04/05 14:11:16;;;;;;;;;;;18.40;66.90;;;;;;5031710;28;1231;-71
2024/04/05 14:13:42;;;;;;;;;;;18.40;66.70;;;;;;5042780;28;1176;-70
2024/04/05 14:16:08;;;;;;;;;;;18.40;66.60;;;;;;5042326;28;1417;-70
2024/04/05 14:18:33;;;;;;;;;;;18.40;66.60;;;;;;5041638;28;1918;-69
2024/04/05 14:20:59;;;;;;;;;;;18.40;66.60;;;;;;5070938;28;1394;-70
2024/04/05 14:23:25;;;;;;;;;;;18.40;66.60;;;;;;5068810;28;1950;-70